sensor_id;sensor_type;location;lat;lon;timestamp;pressure;altitude;pressure_sealevel;temperature;humidity
29383;BME280;16365;51.598;7.668;2023-05-18T00:00:52;102080.69;;;15.21;35.90
29383;BME280;16365;51.598;7.668;2023-05-18T00:03:20;102079.34;;;15.18;35.79
29383;BME280;16365;51.598;7.668;2023-05-18T00:05:47;102076.06;;;15.16;35.96
29383;BME280;16365;51.598;7.668;2023-05-18T00:08:14;102069.19;;;15.13;35.69
29383;BME280;16365;51.598;7.668;2023-05-18T00:10:41;102075.75;;;15.09;35.82
29383;BME280;16365;51.598;7.668;2023-05-18T00:13:08;102071.63;;;15.06;36.00
29383;BME280;16365;51.598;7.668;2023-05-18T00:15:34;102073.75;;;15.01;36.06
29383;BME280;16365;51.598;7.668;2023-05-18T00:18:01;102073.56;;;14.97;36.18
29383;BME280;16365;51.598;7.668;2023-05-18T00:20:28;102079.28;;;14.92;36.43
29383;BME280;16365;51.598;7.668;2023-05-18T00:22:55;102074.03;;;14.90;35.91
29383;BME280;16365;51.598;7.668;2023-05-18T00:25:22;102079.09;;;14.88;36.09
29383;BME280;16365;51.598;7.668;2023-05-18T00:27:48;102073.03;;;14.86;36.55
29383;BME280;16365;51.598;7.668;2023-05-18T00:30:17;102084.53;;;14.85;36.55
29383;BME280;16365;51.598;7.668;2023-05-18T00:32:44;102079.25;;;14.83;35.98
29383;BME280;16365;51.598;7.668;2023-05-18T00:35:11;102075.16;;;14.81;36.12
29383;BME280;16365;51.598;7.668;2023-05-18T00:37:37;102077.78;;;14.77;36.26
29383;BME280;16365;51.598;7.668;2023-05-18T00:40:04;102078.41;;;14.74;36.61
29383;BME280;16365;51.598;7.668;2023-05-18T00:42:31;102073.97;;;14.73;36.71
29383;BME280;16365;51.598;7.668;2023-05-18T00:44:58;102079.88;;;14.72;36.57
29383;BME280;16365;51.598;7.668;2023-05-18T00:47:24;102077.44;;;14.70;36.39
29383;BME280;16365;51.598;7.668;2023-05-18T00:49:51;102084.47;;;14.68;36.41
29383;BME280;16365;51.598;7.668;2023-05-18T00:52:17;102085.94;;;14.65;36.64
29383;BME280;16365;51.598;7.668;2023-05-18T00:54:44;102074.25;;;14.63;36.48
29383;BME280;16365;51.598;7.668;2023-05-18T00:57:11;102075.75;;;14.60;36.34
29383;BME280;16365;51.598;7.668;2023-05-18T00:59:38;102085.25;;;14.59;36.67
29383;BME280;16365;51.598;7.668;2023-05-18T01:02:05;102082.28;;;14.56;36.78
29383;BME280;16365;51.598;7.668;2023-05-18T01:04:32;102084.56;;;14.54;37.02
29383;BME280;16365;51.598;7.668;2023-05-18T01:06:59;102083.25;;;14.51;36.78
29383;BME280;16365;51.598;7.668;2023-05-18T01:09:32;102089.97;;;14.50;36.63
29383;BME280;16365;51.598;7.668;2023-05-18T01:12:18;102080.88;;;14.45;37.65
29383;BME280;16365;51.598;7.668;2023-05-18T01:15:25;102072.84;;;14.43;37.76
29383;BME280;16365;51.598;7.668;2023-05-18T01:20:34;102084.31;;;14.42;37.98
29383;BME280;16365;51.598;7.668;2023-05-18T01:26:13;102075.28;;;14.36;37.24
29383;BME280;16365;51.598;7.668;2023-05-18T01:28:43;102074.44;;;14.35;37.55
29383;BME280;16365;51.598;7.668;2023-05-18T01:31:12;102074.75;;;14.34;37.06
29383;BME280;16365;51.598;7.668;2023-05-18T01:33:40;102075.09;;;14.32;37.52
29383;BME280;16365;51.598;7.668;2023-05-18T01:36:07;102078.19;;;14.31;37.35
29383;BME280;16365;51.598;7.668;2023-05-18T01:38:34;102079.66;;;14.28;37.48
29383;BME280;16365;51.598;7.668;2023-05-18T01:43:43;102089.47;;;14.26;37.57
29383;BME280;16365;51.598;7.668;2023-05-18T01:46:24;102096.41;;;14.28;37.95
29383;BME280;16365;51.598;7.668;2023-05-18T01:48:55;102091.97;;;14.27;38.14
29383;BME280;16365;51.598;7.668;2023-05-18T01:51:28;102092.25;;;14.26;38.33
29383;BME280;16365;51.598;7.668;2023-05-18T01:54:02;102100.34;;;14.27;38.29
29383;BME280;16365;51.598;7.668;2023-05-18T01:56:31;102093.06;;;14.26;37.92
29383;BME280;16365;51.598;7.668;2023-05-18T01:58:59;102086.06;;;14.29;37.77
29383;BME280;16365;51.598;7.668;2023-05-18T02:01:25;102084.91;;;14.30;38.30
29383;BME280;16365;51.598;7.668;2023-05-18T02:03:52;102081.81;;;14.31;38.03
29383;BME280;16365;51.598;7.668;2023-05-18T02:06:19;102085.44;;;14.32;37.62
29383;BME280;16365;51.598;7.668;2023-05-18T02:08:46;102082.31;;;14.33;37.73
29383;BME280;16365;51.598;7.668;2023-05-18T02:11:12;102088.72;;;14.34;38.15
29383;BME280;16365;51.598;7.668;2023-05-18T02:13:39;102085.09;;;14.33;38.43
29383;BME280;16365;51.598;7.668;2023-05-18T02:16:06;102090.34;;;14.35;38.02
29383;BME280;16365;51.598;7.668;2023-05-18T02:18:33;102083.94;;;14.34;38.57
29383;BME280;16365;51.598;7.668;2023-05-18T02:21:01;102075.56;;;14.34;37.78
29383;BME280;16365;51.598;7.668;2023-05-18T02:23:29;102085.09;;;14.33;38.09
29383;BME280;16365;51.598;7.668;2023-05-18T02:25:56;102085.72;;;14.30;38.42
29383;BME280;16365;51.598;7.668;2023-05-18T02:28:23;102088.84;;;14.29;38.01
29383;BME280;16365;51.598;7.668;2023-05-18T02:30:50;102081.91;;;14.26;38.59
29383;BME280;16365;51.598;7.668;2023-05-18T02:33:16;102089.81;;;14.24;38.26
29383;BME280;16365;51.598;7.668;2023-05-18T02:35:44;102082.06;;;14.21;38.67
29383;BME280;16365;51.598;7.668;2023-05-18T02:38:11;102091.56;;;14.20;38.45
29383;BME280;16365;51.598;7.668;2023-05-18T02:40:38;102089.13;;;14.19;38.54
29383;BME280;16365;51.598;7.668;2023-05-18T02:43:04;102086.66;;;14.17;38.47
29383;BME280;16365;51.598;7.668;2023-05-18T02:45:31;102094.50;;;14.15;38.85
29383;BME280;16365;51.598;7.668;2023-05-18T02:47:58;102092.03;;;14.13;38.77
29383;BME280;16365;51.598;7.668;2023-05-18T02:50:24;102092.84;;;14.14;38.46
29383;BME280;16365;51.598;7.668;2023-05-18T02:52:51;102089.56;;;14.12;38.51
29383;BME280;16365;51.598;7.668;2023-05-18T02:55:17;102092.16;;;14.08;38.69
29383;BME280;16365;51.598;7.668;2023-05-18T02:57:44;102095.59;;;14.05;38.10
29383;BME280;16365;51.598;7.668;2023-05-18T03:00:13;102095.38;;;14.02;38.05
29383;BME280;16365;51.598;7.668;2023-05-18T03:02:42;102087.97;;;13.97;38.25
29383;BME280;16365;51.598;7.668;2023-05-18T03:05:09;102094.00;;;13.91;38.06
29383;BME280;16365;51.598;7.668;2023-05-18T03:07:36;102095.28;;;13.84;38.42
29383;BME280;16365;51.598;7.668;2023-05-18T03:10:03;102097.38;;;13.79;38.63
29383;BME280;16365;51.598;7.668;2023-05-18T03:12:29;102098.81;;;13.76;38.68
29383;BME280;16365;51.598;7.668;2023-05-18T03:14:56;102100.56;;;13.72;38.66
29383;BME280;16365;51.598;7.668;2023-05-18T03:17:22;102099.25;;;13.70;38.96
29383;BME280;16365;51.598;7.668;2023-05-18T03:19:49;102097.09;;;13.67;38.70
29383;BME280;16365;51.598;7.668;2023-05-18T03:22:16;102103.00;;;13.65;39.39
29383;BME280;16365;51.598;7.668;2023-05-18T03:24:43;102103.00;;;13.65;39.08
29383;BME280;16365;51.598;7.668;2023-05-18T03:27:09;102102.16;;;13.65;38.86
29383;BME280;16365;51.598;7.668;2023-05-18T03:29:38;102101.34;;;13.64;38.90
29383;BME280;16365;51.598;7.668;2023-05-18T03:32:05;102104.13;;;13.64;38.92
29383;BME280;16365;51.598;7.668;2023-05-18T03:34:31;102107.75;;;13.65;39.03
29383;BME280;16365;51.598;7.668;2023-05-18T03:36:58;102101.34;;;13.64;38.58
29383;BME280;16365;51.598;7.668;2023-05-18T03:39:25;102110.81;;;13.63;39.14
29383;BME280;16365;51.598;7.668;2023-05-18T03:41:51;102113.94;;;13.61;39.00
29383;BME280;16365;51.598;7.668;2023-05-18T03:44:18;102114.25;;;13.60;38.72
29383;BME280;16365;51.598;7.668;2023-05-18T03:46:44;102111.47;;;13.60;39.31
29383;BME280;16365;51.598;7.668;2023-05-18T03:49:11;102118.19;;;13.59;39.16
29383;BME280;16365;51.598;7.668;2023-05-18T03:51:39;102122.63;;;13.60;39.49
29383;BME280;16365;51.598;7.668;2023-05-18T03:54:06;102116.53;;;13.58;39.53
29383;BME280;16365;51.598;7.668;2023-05-18T03:56:32;102120.97;;;13.59;38.55
29383;BME280;16365;51.598;7.668;2023-05-18T03:58:59;102111.75;;;13.58;38.73
29383;BME280;16365;51.598;7.668;2023-05-18T04:01:25;102115.41;;;13.59;39.65
29383;BME280;16365;51.598;7.668;2023-05-18T04:03:55;102114.88;;;13.57;39.29
29383;BME280;16365;51.598;7.668;2023-05-18T04:06:23;102108.47;;;13.56;39.63
29383;BME280;16365;51.598;7.668;2023-05-18T04:08:52;102110.94;;;13.58;39.02
29383;BME280;16365;51.598;7.668;2023-05-18T04:11:18;102117.16;;;13.55;39.44
29383;BME280;16365;51.598;7.668;2023-05-18T04:13:46;102121.59;;;13.56;38.95
29383;BME280;16365;51.598;7.668;2023-05-18T04:16:13;102118.31;;;13.54;39.05
29383;BME280;16365;51.598;7.668;2023-05-18T04:18:40;102120.56;;;13.52;39.62
29383;BME280;16365;51.598;7.668;2023-05-18T04:21:07;102123.69;;;13.50;39.29
29383;BME280;16365;51.598;7.668;2023-05-18T04:23:34;102127.59;;;13.49;39.19
29383;BME280;16365;51.598;7.668;2023-05-18T04:26:05;102131.50;;;13.48;39.07
29383;BME280;16365;51.598;7.668;2023-05-18T04:28:32;102126.25;;;13.47;39.82
29383;BME280;16365;51.598;7.668;2023-05-18T04:30:58;102124.63;;;13.46;38.78
29383;BME280;16365;51.598;7.668;2023-05-18T04:33:28;102120.19;;;13.45;39.55
29383;BME280;16365;51.598;7.668;2023-05-18T04:35:54;102123.47;;;13.47;39.21
29383;BME280;16365;51.598;7.668;2023-05-18T04:38:21;102127.06;;;13.47;39.40
29383;BME280;16365;51.598;7.668;2023-05-18T04:40:50;102128.72;;;13.48;39.86
29383;BME280;16365;51.598;7.668;2023-05-18T04:43:17;102133.47;;;13.48;39.67
29383;BME280;16365;51.598;7.668;2023-05-18T04:45:44;102126.75;;;13.49;39.42
29383;BME280;16365;51.598;7.668;2023-05-18T04:48:16;102131.22;;;13.50;39.45
29383;BME280;16365;51.598;7.668;2023-05-18T04:50:45;102132.84;;;13.51;39.57
29383;BME280;16365;51.598;7.668;2023-05-18T04:53:12;102128.09;;;13.51;40.09
29383;BME280;16365;51.598;7.668;2023-05-18T04:55:39;102129.25;;;13.50;39.78
29383;BME280;16365;51.598;7.668;2023-05-18T04:58:05;102135.66;;;13.51;39.84
29383;BME280;16365;51.598;7.668;2023-05-18T05:00:31;102132.84;;;13.51;39.92
29383;BME280;16365;51.598;7.668;2023-05-18T05:02:58;102136.97;;;13.53;39.54
29383;BME280;16365;51.598;7.668;2023-05-18T05:05:25;102139.47;;;13.55;40.01
29383;BME280;16365;51.598;7.668;2023-05-18T05:07:53;102137.50;;;13.55;40.24
29383;BME280;16365;51.598;7.668;2023-05-18T05:10:20;102131.09;;;13.55;39.89
29383;BME280;16365;51.598;7.668;2023-05-18T05:12:50;102141.09;;;13.56;39.30
29383;BME280;16365;51.598;7.668;2023-05-18T05:15:17;102139.13;;;13.56;39.66
29383;BME280;16365;51.598;7.668;2023-05-18T05:17:48;102140.28;;;13.55;40.03
29383;BME280;16365;51.598;7.668;2023-05-18T05:20:16;102143.56;;;13.57;39.94
29383;BME280;16365;51.598;7.668;2023-05-18T05:22:43;102144.09;;;13.59;40.30
29383;BME280;16365;51.598;7.668;2023-05-18T05:25:10;102142.41;;;13.58;39.53
29383;BME280;16365;51.598;7.668;2023-05-18T05:27:37;102138.53;;;13.59;40.06
29383;BME280;16365;51.598;7.668;2023-05-18T05:30:04;102148.53;;;13.60;40.15
29383;BME280;16365;51.598;7.668;2023-05-18T05:32:32;102152.94;;;13.61;39.98
29383;BME280;16365;51.598;7.668;2023-05-18T05:34:59;102137.56;;;13.64;39.81
29383;BME280;16365;51.598;7.668;2023-05-18T05:37:25;102141.19;;;13.65;39.62
29383;BME280;16365;51.598;7.668;2023-05-18T05:39:51;102144.47;;;13.67;39.16
29383;BME280;16365;51.598;7.668;2023-05-18T05:42:18;102155.63;;;13.67;39.37
29383;BME280;16365;51.598;7.668;2023-05-18T05:44:45;102152.84;;;13.67;39.53
29383;BME280;16365;51.598;7.668;2023-05-18T05:47:11;102145.28;;;13.67;39.60
29383;BME280;16365;51.598;7.668;2023-05-18T05:49:38;102145.00;;;13.69;39.99
29383;BME280;16365;51.598;7.668;2023-05-18T05:52:05;102145.50;;;13.71;40.45
29383;BME280;16365;51.598;7.668;2023-05-18T05:54:31;102146.00;;;13.73;39.94
29383;BME280;16365;51.598;7.668;2023-05-18T05:56:58;102147.03;;;13.77;39.67
29383;BME280;16365;51.598;7.668;2023-05-18T05:59:25;102138.88;;;13.80;39.56
29383;BME280;16365;51.598;7.668;2023-05-18T06:01:51;102145.47;;;13.84;39.43
29383;BME280;16365;51.598;7.668;2023-05-18T06:04:18;102145.34;;;13.89;40.43
29383;BME280;16365;51.598;7.668;2023-05-18T06:06:46;102156.69;;;13.93;40.31
29383;BME280;16365;51.598;7.668;2023-05-18T06:09:14;102152.63;;;13.99;39.64
29383;BME280;16365;51.598;7.668;2023-05-18T06:11:41;102149.38;;;14.06;39.87
29383;BME280;16365;51.598;7.668;2023-05-18T06:14:08;102156.50;;;14.12;39.29
29383;BME280;16365;51.598;7.668;2023-05-18T06:16:34;102161.09;;;14.17;39.69
29383;BME280;16365;51.598;7.668;2023-05-18T06:19:01;102157.38;;;14.21;39.63
29383;BME280;16365;51.598;7.668;2023-05-18T06:21:28;102162.00;;;14.26;39.03
29383;BME280;16365;51.598;7.668;2023-05-18T06:23:55;102159.41;;;14.29;39.20
29383;BME280;16365;51.598;7.668;2023-05-18T06:26:22;102156.00;;;14.32;39.50
29383;BME280;16365;51.598;7.668;2023-05-18T06:28:48;102165.88;;;14.38;39.08
29383;BME280;16365;51.598;7.668;2023-05-18T06:31:15;102163.28;;;14.42;39.11
29383;BME280;16365;51.598;7.668;2023-05-18T06:33:44;102165.13;;;14.47;39.51
29383;BME280;16365;51.598;7.668;2023-05-18T06:36:11;102164.50;;;14.50;39.21
29383;BME280;16365;51.598;7.668;2023-05-18T06:38:37;102175.84;;;14.53;39.23
29383;BME280;16365;51.598;7.668;2023-05-18T06:41:03;102169.13;;;14.54;39.12
29383;BME280;16365;51.598;7.668;2023-05-18T06:43:30;102171.78;;;14.59;38.70
29383;BME280;16365;51.598;7.668;2023-05-18T06:45:58;102177.22;;;14.64;38.98
29383;BME280;16365;51.598;7.668;2023-05-18T06:48:26;102180.19;;;14.68;38.63
29383;BME280;16365;51.598;7.668;2023-05-18T06:50:54;102172.84;;;14.72;39.12
29383;BME280;16365;51.598;7.668;2023-05-18T06:53:21;102172.38;;;14.79;38.98
29383;BME280;16365;51.598;7.668;2023-05-18T06:55:48;102177.00;;;14.83;39.02
29383;BME280;16365;51.598;7.668;2023-05-18T06:58:15;102176.84;;;14.88;38.42
29383;BME280;16365;51.598;7.668;2023-05-18T07:00:43;102171.13;;;14.94;38.44
29383;BME280;16365;51.598;7.668;2023-05-18T07:03:10;102173.75;;;14.99;38.24
29383;BME280;16365;51.598;7.668;2023-05-18T07:05:37;102170.00;;;15.03;38.59
29383;BME280;16365;51.598;7.668;2023-05-18T07:08:05;102179.09;;;15.09;38.50
29383;BME280;16365;51.598;7.668;2023-05-18T07:10:32;102178.13;;;15.13;38.21
29383;BME280;16365;51.598;7.668;2023-05-18T07:13:01;102177.97;;;15.19;38.48
29383;BME280;16365;51.598;7.668;2023-05-18T07:15:28;102175.84;;;15.24;38.44
29383;BME280;16365;51.598;7.668;2023-05-18T07:17:55;102181.28;;;15.29;37.93
29383;BME280;16365;51.598;7.668;2023-05-18T07:20:22;102180.31;;;15.34;38.08
29383;BME280;16365;51.598;7.668;2023-05-18T07:22:51;102181.81;;;15.40;38.17
29383;BME280;16365;51.598;7.668;2023-05-18T07:25:21;102175.72;;;15.47;37.97
29383;BME280;16365;51.598;7.668;2023-05-18T07:27:48;102186.13;;;15.55;38.00
29383;BME280;16365;51.598;7.668;2023-05-18T07:30:17;102187.00;;;15.64;37.89
29383;BME280;16365;51.598;7.668;2023-05-18T07:32:44;102183.69;;;15.71;38.10
29383;BME280;16365;51.598;7.668;2023-05-18T07:35:11;102181.44;;;15.81;38.06
29383;BME280;16365;51.598;7.668;2023-05-18T07:37:38;102175.50;;;15.91;37.84
29383;BME280;16365;51.598;7.668;2023-05-18T07:40:06;102172.03;;;16.03;37.79
29383;BME280;16365;51.598;7.668;2023-05-18T07:42:36;102169.41;;;16.15;37.91
29383;BME280;16365;51.598;7.668;2023-05-18T07:45:03;102170.88;;;16.30;37.47
29383;BME280;16365;51.598;7.668;2023-05-18T07:47:29;102173.97;;;16.46;37.48
29383;BME280;16365;51.598;7.668;2023-05-18T07:49:56;102174.94;;;16.59;37.25
29383;BME280;16365;51.598;7.668;2023-05-18T07:52:25;102168.50;;;16.76;36.75
29383;BME280;16365;51.598;7.668;2023-05-18T07:54:53;102163.50;;;16.90;36.77
29383;BME280;16365;51.598;7.668;2023-05-18T07:57:20;102162.94;;;17.05;36.92
29383;BME280;16365;51.598;7.668;2023-05-18T07:59:47;102164.69;;;17.18;36.41
29383;BME280;16365;51.598;7.668;2023-05-18T08:02:13;102163.13;;;17.30;36.10
29383;BME280;16365;51.598;7.668;2023-05-18T08:04:42;102172.13;;;17.44;36.19
29383;BME280;16365;51.598;7.668;2023-05-18T08:07:08;102163.13;;;17.59;35.94
29383;BME280;16365;51.598;7.668;2023-05-18T08:09:36;102165.19;;;17.71;35.79
29383;BME280;16365;51.598;7.668;2023-05-18T08:12:04;102166.44;;;17.82;35.64
29383;BME280;16365;51.598;7.668;2023-05-18T08:14:31;102168.16;;;17.95;35.86
29383;BME280;16365;51.598;7.668;2023-05-18T08:16:57;102162.75;;;18.11;35.74
29383;BME280;16365;51.598;7.668;2023-05-18T08:19:25;102166.44;;;18.24;35.60
29383;BME280;16365;51.598;7.668;2023-05-18T08:21:54;102162.16;;;18.39;35.56
29383;BME280;16365;51.598;7.668;2023-05-18T08:24:20;102160.69;;;18.54;34.86
29383;BME280;16365;51.598;7.668;2023-05-18T08:26:48;102166.31;;;18.66;35.05
29383;BME280;16365;51.598;7.668;2023-05-18T08:29:15;102162.03;;;18.81;34.39
29383;BME280;16365;51.598;7.668;2023-05-18T08:31:41;102157.63;;;18.92;34.87
29383;BME280;16365;51.598;7.668;2023-05-18T08:34:08;102154.34;;;19.02;34.04
29383;BME280;16365;51.598;7.668;2023-05-18T08:36:35;102151.88;;;19.13;34.20
29383;BME280;16365;51.598;7.668;2023-05-18T08:39:03;102142.63;;;19.24;33.85
29383;BME280;16365;51.598;7.668;2023-05-18T08:44:14;102140.72;;;19.41;33.17
29383;BME280;16365;51.598;7.668;2023-05-18T08:46:44;102139.44;;;19.50;33.35
29383;BME280;16365;51.598;7.668;2023-05-18T08:49:17;102142.97;;;19.60;32.62
29383;BME280;16365;51.598;7.668;2023-05-18T08:51:45;102140.28;;;19.63;32.74
29383;BME280;16365;51.598;7.668;2023-05-18T08:54:19;102145.91;;;19.63;32.30
29383;BME280;16365;51.598;7.668;2023-05-18T08:56:47;102135.09;;;19.65;32.56
29383;BME280;16365;51.598;7.668;2023-05-18T08:59:30;102142.22;;;19.63;32.77
29383;BME280;16365;51.598;7.668;2023-05-18T09:01:59;102144.34;;;19.66;32.66
29383;BME280;16365;51.598;7.668;2023-05-18T09:04:25;102141.09;;;19.64;32.22
29383;BME280;16365;51.598;7.668;2023-05-18T09:06:54;102143.09;;;19.63;32.14
29383;BME280;16365;51.598;7.668;2023-05-18T09:09:22;102129.72;;;19.60;32.32
29383;BME280;16365;51.598;7.668;2023-05-18T09:11:50;102137.19;;;19.56;31.79
29383;BME280;16365;51.598;7.668;2023-05-18T09:14:17;102129.00;;;19.51;31.88
29383;BME280;16365;51.598;7.668;2023-05-18T09:16:44;102126.78;;;19.44;31.65
29383;BME280;16365;51.598;7.668;2023-05-18T09:19:10;102122.56;;;19.38;31.75
29383;BME280;16365;51.598;7.668;2023-05-18T09:21:38;102133.59;;;19.31;32.13
29383;BME280;16365;51.598;7.668;2023-05-18T09:24:05;102130.66;;;19.27;32.34
29383;BME280;16365;51.598;7.668;2023-05-18T09:26:32;102123.78;;;19.25;32.18
29383;BME280;16365;51.598;7.668;2023-05-18T09:28:58;102114.03;;;19.22;32.10
29383;BME280;16365;51.598;7.668;2023-05-18T09:31:29;102119.19;;;19.20;32.24
29383;BME280;16365;51.598;7.668;2023-05-18T09:33:57;102114.72;;;19.19;32.22
29383;BME280;16365;51.598;7.668;2023-05-18T09:36:30;102114.72;;;19.19;31.89
29383;BME280;16365;51.598;7.668;2023-05-18T09:38:57;102107.47;;;19.18;31.87
29383;BME280;16365;51.598;7.668;2023-05-18T09:41:25;102113.47;;;19.17;31.70
29383;BME280;16365;51.598;7.668;2023-05-18T09:43:53;102115.09;;;19.18;32.15
29383;BME280;16365;51.598;7.668;2023-05-18T09:46:20;102114.28;;;19.17;32.33
29383;BME280;16365;51.598;7.668;2023-05-18T09:48:52;102117.91;;;19.18;32.11
29383;BME280;16365;51.598;7.668;2023-05-18T09:51:21;102119.28;;;19.24;32.06
29383;BME280;16365;51.598;7.668;2023-05-18T09:53:55;102115.78;;;19.27;32.11
29383;BME280;16365;51.598;7.668;2023-05-18T09:56:25;102122.81;;;19.33;32.27
29383;BME280;16365;51.598;7.668;2023-05-18T09:58:52;102120.94;;;19.37;32.29
29383;BME280;16365;51.598;7.668;2023-05-18T10:01:19;102122.69;;;19.42;31.97
29383;BME280;16365;51.598;7.668;2023-05-18T10:03:46;102116.34;;;19.45;32.20
29383;BME280;16365;51.598;7.668;2023-05-18T10:06:14;102111.66;;;19.49;32.19
29383;BME280;16365;51.598;7.668;2023-05-18T10:08:45;102110.94;;;19.52;31.85
29383;BME280;16365;51.598;7.668;2023-05-18T10:11:16;102104.84;;;19.50;31.49
29383;BME280;16365;51.598;7.668;2023-05-18T10:13:44;102108.50;;;19.50;31.70
29383;BME280;16365;51.598;7.668;2023-05-18T10:16:14;102108.00;;;19.48;31.86
29383;BME280;16365;51.598;7.668;2023-05-18T10:18:43;102106.75;;;19.46;31.96
29383;BME280;16365;51.598;7.668;2023-05-18T10:21:11;102099.94;;;19.47;32.47
29383;BME280;16365;51.598;7.668;2023-05-18T10:23:40;102103.22;;;19.49;32.18
29383;BME280;16365;51.598;7.668;2023-05-18T10:26:07;102099.69;;;19.52;31.85
29383;BME280;16365;51.598;7.668;2023-05-18T10:28:44;102090.91;;;19.54;32.10
29383;BME280;16365;51.598;7.668;2023-05-18T10:31:27;102093.47;;;19.59;31.79
29383;BME280;16365;51.598;7.668;2023-05-18T10:33:56;102097.34;;;19.66;31.64
29383;BME280;16365;51.598;7.668;2023-05-18T10:36:27;102097.81;;;19.68;31.69
29383;BME280;16365;51.598;7.668;2023-05-18T10:38:57;102101.91;;;19.71;31.94
29383;BME280;16365;51.598;7.668;2023-05-18T10:41:25;102089.13;;;19.73;31.66
29383;BME280;16365;51.598;7.668;2023-05-18T10:43:53;102085.94;;;19.75;31.60
29383;BME280;16365;51.598;7.668;2023-05-18T10:46:21;102089.56;;;19.75;31.59
29383;BME280;16365;51.598;7.668;2023-05-18T10:48:52;102077.94;;;19.77;31.91
29383;BME280;16365;51.598;7.668;2023-05-18T10:51:20;102079.22;;;19.80;31.93
29383;BME280;16365;51.598;7.668;2023-05-18T10:53:47;102080.59;;;19.86;31.77
29383;BME280;16365;51.598;7.668;2023-05-18T10:56:16;102081.53;;;19.90;31.77
29383;BME280;16365;51.598;7.668;2023-05-18T10:58:44;102075.66;;;19.95;31.51
29383;BME280;16365;51.598;7.668;2023-05-18T11:01:11;102062.88;;;19.97;31.33
29383;BME280;16365;51.598;7.668;2023-05-18T11:06:08;102062.69;;;20.06;31.42
29383;BME280;16365;51.598;7.668;2023-05-18T11:08:43;102064.41;;;20.11;31.22
29383;BME280;16365;51.598;7.668;2023-05-18T11:11:11;102064.78;;;20.09;30.89
29383;BME280;16365;51.598;7.668;2023-05-18T11:13:49;102076.69;;;20.02;30.61
29383;BME280;16365;51.598;7.668;2023-05-18T11:16:17;102077.38;;;19.99;30.61
29383;BME280;16365;51.598;7.668;2023-05-18T11:18:49;102061.56;;;19.95;30.94
29383;BME280;16365;51.598;7.668;2023-05-18T11:21:49;102060.19;;;19.89;31.37
29383;BME280;16365;51.598;7.668;2023-05-18T11:24:29;102061.47;;;19.91;31.10
29383;BME280;16365;51.598;7.668;2023-05-18T11:27:01;102060.75;;;19.94;31.05
29383;BME280;16365;51.598;7.668;2023-05-18T11:29:34;102051.22;;;19.99;30.72
29383;BME280;16365;51.598;7.668;2023-05-18T11:32:01;102052.16;;;20.03;31.06
29383;BME280;16365;51.598;7.668;2023-05-18T11:34:40;102059.03;;;20.06;30.48
29383;BME280;16365;51.598;7.668;2023-05-18T11:40:11;102055.06;;;20.07;30.42
29383;BME280;16365;51.598;7.668;2023-05-18T11:42:40;102046.38;;;20.12;30.35
29383;BME280;16365;51.598;7.668;2023-05-18T11:45:07;102043.19;;;20.13;30.46
29383;BME280;16365;51.598;7.668;2023-05-18T11:47:35;102040.81;;;20.15;30.91
29383;BME280;16365;51.598;7.668;2023-05-18T11:50:05;102044.09;;;20.17;30.47
29383;BME280;16365;51.598;7.668;2023-05-18T11:52:32;102045.84;;;20.22;30.49
29383;BME280;16365;51.598;7.668;2023-05-18T11:55:00;102044.28;;;20.24;30.93
29383;BME280;16365;51.598;7.668;2023-05-18T12:00:00;102043.72;;;20.35;30.82
29383;BME280;16365;51.598;7.668;2023-05-18T12:02:31;102037.81;;;20.40;30.00
29383;BME280;16365;51.598;7.668;2023-05-18T12:04:59;102029.59;;;20.47;30.48
29383;BME280;16365;51.598;7.668;2023-05-18T12:07:27;102032.25;;;20.56;30.37
29383;BME280;16365;51.598;7.668;2023-05-18T12:10:00;102019.88;;;20.60;30.32
29383;BME280;16365;51.598;7.668;2023-05-18T12:12:28;102031.41;;;20.71;30.11
29383;BME280;16365;51.598;7.668;2023-05-18T12:14:57;102021.38;;;20.73;30.13
29383;BME280;16365;51.598;7.668;2023-05-18T12:17:37;102022.69;;;20.76;30.51
29383;BME280;16365;51.598;7.668;2023-05-18T12:20:07;102026.84;;;20.82;30.16
29383;BME280;16365;51.598;7.668;2023-05-18T12:22:33;102014.84;;;20.85;29.82
29383;BME280;16365;51.598;7.668;2023-05-18T12:25:01;102014.94;;;20.89;29.78
29383;BME280;16365;51.598;7.668;2023-05-18T12:27:27;102014.19;;;20.92;29.59
29383;BME280;16365;51.598;7.668;2023-05-18T12:29:54;102008.63;;;20.95;29.38
29383;BME280;16365;51.598;7.668;2023-05-18T12:32:21;102012.69;;;20.98;29.43
29383;BME280;16365;51.598;7.668;2023-05-18T12:34:49;102010.34;;;21.00;29.13
29383;BME280;16365;51.598;7.668;2023-05-18T12:37:16;102006.34;;;21.01;29.36
29383;BME280;16365;51.598;7.668;2023-05-18T12:39:50;102007.44;;;20.96;29.82
29383;BME280;16365;51.598;7.668;2023-05-18T12:42:17;102010.78;;;21.02;29.24
29383;BME280;16365;51.598;7.668;2023-05-18T12:44:44;102003.13;;;21.02;29.40
29383;BME280;16365;51.598;7.668;2023-05-18T12:47:11;101995.16;;;21.04;29.54
29383;BME280;16365;51.598;7.668;2023-05-18T12:49:39;102002.03;;;21.07;29.23
29383;BME280;16365;51.598;7.668;2023-05-18T12:52:11;102004.94;;;21.11;29.03
29383;BME280;16365;51.598;7.668;2023-05-18T12:54:53;102003.41;;;21.13;29.30
29383;BME280;16365;51.598;7.668;2023-05-18T12:57:28;101993.06;;;21.21;29.43
29383;BME280;16365;51.598;7.668;2023-05-18T12:59:56;101987.53;;;21.24;29.31
29383;BME280;16365;51.598;7.668;2023-05-18T13:02:32;101993.97;;;21.25;28.64
29383;BME280;16365;51.598;7.668;2023-05-18T13:07:34;101990.06;;;21.29;28.89
29383;BME280;16365;51.598;7.668;2023-05-18T13:10:08;101988.97;;;21.34;28.84
29383;BME280;16365;51.598;7.668;2023-05-18T13:12:41;101982.13;;;21.35;28.72
29383;BME280;16365;51.598;7.668;2023-05-18T13:15:15;101974.13;;;21.37;28.56
29383;BME280;16365;51.598;7.668;2023-05-18T13:17:59;101976.09;;;21.37;29.30